Time;durP1;ratioP1;P1;durP2;ratioP2;P2;SDS_P1;SDS_P2;PMS_P1;PMS_P2;Temp;Humidity;BMP_temperature;BMP_pressure;BME280_temperature;BME280_humidity;BME280_pressure;Samples;Min_cycle;Max_cycle;Signal;HPM_P1;HPM_P2
2024/03/24 00:01:26;;;;;;;1.57;1.00;;;6.90;99.90;;;;;;5080360;28;20180;-36
2024/03/24 00:03:52;;;;;;;2.20;0.97;;;6.90;99.90;;;;;;5098420;28;20329;-38
2024/03/24 00:06:18;;;;;;;2.33;1.50;;;6.90;99.90;;;;;;5098350;28;20528;-36
2024/03/24 00:08:43;;;;;;;1.60;0.70;;;6.90;99.90;;;;;;5099242;28;20525;-37
2024/03/24 00:11:09;;;;;;;1.30;1.00;;;6.80;99.90;;;;;;4568350;28;15083752;-36
2024/03/24 00:13:35;;;;;;;3.03;1.00;;;6.80;1.00;;;;;;5082061;28;20216;-37
2024/03/24 00:16:02;;;;;;;2.13;0.80;;;6.80;1.00;;;;;;5100390;28;20172;-36
2024/03/24 00:18:28;;;;;;;3.13;1.17;;;6.80;1.00;;;;;;5099220;28;20234;-36
2024/03/24 00:20:53;;;;;;;1.27;0.90;;;6.80;1.00;;;;;;5098857;28;20430;-37
2024/03/24 00:23:19;;;;;;;1.57;0.97;;;6.80;1.00;;;;;;5098809;28;20316;-37
2024/03/24 00:25:45;;;;;;;1.77;1.00;;;6.70;12.00;;;;;;5099126;28;20176;-37
2024/03/24 00:28:10;;;;;;;3.63;0.97;;;6.70;99.90;;;;;;5097956;28;20253;-37
2024/03/24 00:30:36;;;;;;;1.80;1.00;;;6.70;99.90;;;;;;5099691;28;20181;-36
2024/03/24 00:33:01;;;;;;;2.47;1.20;;;6.60;99.90;;;;;;5099626;28;20212;-35
2024/03/24 00:35:27;;;;;;;1.33;0.90;;;6.60;99.90;;;;;;5099718;28;20222;-37
2024/03/24 00:37:53;;;;;;;2.43;0.97;;;6.60;99.90;;;;;;5096782;28;20243;-36
2024/03/24 00:40:18;;;;;;;1.93;1.00;;;6.60;99.90;;;;;;5098132;28;20299;-36
2024/03/24 00:42:44;;;;;;;1.87;0.93;;;6.60;99.90;;;;;;5098988;28;20200;-36
2024/03/24 00:45:10;;;;;;;1.70;1.00;;;6.60;99.90;;;;;;5098937;28;20622;-38
2024/03/24 00:47:36;;;;;;;2.40;1.10;;;6.60;99.90;;;;;;5098965;28;20191;-36
2024/03/24 00:50:03;;;;;;;1.97;1.00;;;6.60;99.90;;;;;;5098640;28;20184;-36
2024/03/24 00:52:28;;;;;;;1.33;0.90;;;6.50;1.00;;;;;;5080459;28;20538;-36
2024/03/24 00:54:54;;;;;;;1.90;1.13;;;6.50;1.00;;;;;;5099177;28;20422;-36
2024/03/24 00:57:20;;;;;;;1.60;0.80;;;6.50;1.00;;;;;;5099411;28;20275;-36
2024/03/24 00:59:45;;;;;;;2.17;0.93;;;6.40;1.00;;;;;;5099013;28;20193;-36
2024/03/24 01:02:11;;;;;;;3.13;1.37;;;6.40;1.00;;;;;;5098913;28;20213;-36
2024/03/24 01:04:37;;;;;;;1.77;0.90;;;6.30;1.00;;;;;;5100599;28;20503;-45
2024/03/24 01:07:03;;;;;;;1.50;0.80;;;6.30;1.00;;;;;;5100252;28;20547;-45
2024/03/24 01:09:29;;;;;;;1.60;0.70;;;6.30;1.00;;;;;;5100099;28;20582;-45
2024/03/24 01:11:54;;;;;;;4.30;1.00;;;6.30;1.00;;;;;;5099766;28;20507;-44
2024/03/24 01:14:20;;;;;;;1.97;1.10;;;6.30;1.00;;;;;;5100627;28;20434;-45
2024/03/24 01:16:46;;;;;;;1.67;0.77;;;6.30;4.40;;;;;;5100746;28;20431;-45
2024/03/24 01:19:11;;;;;;;2.30;0.90;;;6.30;45.40;;;;;;5100303;28;20191;-45
2024/03/24 01:21:37;;;;;;;1.80;1.10;;;6.20;46.30;;;;;;5100757;28;20192;-44
2024/03/24 01:24:03;;;;;;;1.63;1.40;;;6.30;88.40;;;;;;5101013;28;20193;-45
2024/03/24 01:26:29;;;;;;;1.90;1.07;;;6.20;99.90;;;;;;5100569;28;20188;-45
2024/03/24 01:28:54;;;;;;;1.90;0.90;;;6.30;99.90;;;;;;5100845;28;20488;-45
2024/03/24 01:31:20;;;;;;;1.23;0.63;;;6.30;99.90;;;;;;5099942;28;20835;-45
2024/03/24 01:33:46;;;;;;;1.60;0.90;;;6.30;99.90;;;;;;5100575;28;20165;-45
2024/03/24 01:36:12;;;;;;;3.47;1.40;;;6.30;99.90;;;;;;5100618;28;20410;-45
2024/03/24 01:38:37;;;;;;;1.33;0.90;;;6.30;99.90;;;;;;5100901;28;20267;-46
2024/03/24 01:41:03;;;;;;;1.00;0.70;;;6.30;99.90;;;;;;5100107;28;20310;-45
2024/03/24 01:43:29;;;;;;;1.67;1.20;;;6.30;99.90;;;;;;5099699;28;20188;-44
2024/03/24 01:45:54;;;;;;;1.70;0.93;;;6.30;99.90;;;;;;5081715;28;20199;-44
2024/03/24 01:48:20;;;;;;;1.00;0.70;;;6.30;99.90;;;;;;5082087;28;20206;-45
2024/03/24 01:50:46;;;;;;;1.20;0.97;;;6.30;99.90;;;;;;5100260;28;20250;-45
2024/03/24 01:53:12;;;;;;;2.63;1.20;;;6.30;99.90;;;;;;5100288;28;20212;-45
2024/03/24 01:55:37;;;;;;;1.83;1.17;;;6.30;99.90;;;;;;5099172;28;20180;-45
2024/03/24 01:58:03;;;;;;;1.30;0.80;;;6.30;99.90;;;;;;5098456;28;20430;-45
2024/03/24 02:00:30;;;;;;;1.83;0.70;;;6.30;99.90;;;;;;5098122;28;20443;-45
2024/03/24 02:02:56;;;;;;;1.00;0.77;;;6.30;99.90;;;;;;5097685;28;20763;-45
2024/03/24 02:05:26;;;;;;;2.43;0.90;;;6.30;99.90;;;;;;5097991;28;20498;-45
2024/03/24 02:07:52;;;;;;;1.33;0.97;;;6.30;99.90;;;;;;5098104;28;20233;-47
2024/03/24 02:10:18;;;;;;;1.43;0.60;;;6.30;99.90;;;;;;5097825;28;20916;-45
2024/03/24 02:12:44;;;;;;;1.13;0.73;;;6.30;99.90;;;;;;5097415;28;20858;-45
2024/03/24 02:15:12;;;;;;;1.53;0.80;;;6.30;99.90;;;;;;5097946;28;20411;-45
2024/03/24 02:17:38;;;;;;;0.90;0.50;;;6.30;99.90;;;;;;5098616;28;20430;-45
2024/03/24 02:20:04;;;;;;;1.40;0.70;;;6.30;99.90;;;;;;5098481;28;20480;-45
2024/03/24 02:22:34;;;;;;;1.00;0.60;;;6.20;99.90;;;;;;5099381;28;20177;-45
2024/03/24 02:24:59;;;;;;;1.13;0.60;;;6.20;99.90;;;;;;5100086;28;20484;-45
2024/03/24 02:27:25;;;;;;;0.90;0.60;;;6.20;99.90;;;;;;5098987;28;20759;-45
2024/03/24 02:29:51;;;;;;;1.40;0.70;;;6.20;99.90;;;;;;5099253;28;20188;-46
2024/03/24 02:32:16;;;;;;;0.90;0.60;;;6.20;99.90;;;;;;5100252;28;20605;-45
2024/03/24 02:34:42;;;;;;;1.00;0.50;;;6.20;99.90;;;;;;5099384;28;20278;-45
2024/03/24 02:37:07;;;;;;;1.87;0.90;;;6.20;99.90;;;;;;5099229;28;20271;-45
2024/03/24 02:39:33;;;;;;;1.30;0.70;;;6.20;99.90;;;;;;5099004;28;20184;-45
2024/03/24 02:41:58;;;;;;;2.80;0.80;;;6.20;99.90;;;;;;5099260;28;20188;-45
2024/03/24 02:44:25;;;;;;;1.63;0.80;;;6.20;99.90;;;;;;5099500;28;20180;-45
2024/03/24 02:46:52;;;;;;;1.10;0.87;;;6.20;99.90;;;;;;5099077;28;20267;-45
2024/03/24 02:49:17;;;;;;;3.10;1.10;;;6.20;99.90;;;;;;5098943;28;20438;-45
2024/03/24 02:51:43;;;;;;;2.70;0.97;;;6.20;99.90;;;;;;5099573;28;20465;-45
2024/03/24 02:54:09;;;;;;;2.20;0.90;;;6.20;99.90;;;;;;5099078;28;20551;-45
2024/03/24 02:56:34;;;;;;;1.10;0.70;;;6.10;90.90;;;;;;5099432;28;20427;-45
2024/03/24 02:59:00;;;;;;;1.77;1.10;;;6.10;99.90;;;;;;5099520;28;20477;-45
2024/03/24 03:01:27;;;;;;;2.17;0.97;;;6.10;72.50;;;;;;5098834;28;20434;-45
2024/03/24 03:03:52;;;;;;;1.53;0.93;;;6.00;81.80;;;;;;5099075;28;20255;-45
2024/03/24 03:06:18;;;;;;;1.70;1.00;;;6.00;99.90;;;;;;5098925;28;20435;-44
2024/03/24 03:08:44;;;;;;;1.57;0.90;;;6.10;99.90;;;;;;5098065;28;20454;-45
2024/03/24 03:11:10;;;;;;;1.83;0.80;;;6.10;99.90;;;;;;5097401;28;20559;-45
2024/03/24 03:13:35;;;;;;;1.60;0.90;;;6.00;99.90;;;;;;5096560;28;20326;-44
2024/03/24 03:16:01;;;;;;;1.20;0.70;;;6.00;99.90;;;;;;5096591;28;20172;-44
2024/03/24 03:18:27;;;;;;;1.00;0.67;;;5.90;99.90;;;;;;5096441;28;20176;-45
2024/03/24 03:20:52;;;;;;;1.17;0.80;;;5.90;99.90;;;;;;5096142;28;20201;-45
2024/03/24 03:23:18;;;;;;;1.57;0.90;;;5.90;99.90;;;;;;5078675;28;20189;-45
2024/03/24 03:25:43;;;;;;;2.53;0.90;;;5.90;99.90;;;;;;5079954;28;20181;-43
2024/03/24 03:28:09;;;;;;;2.53;1.00;;;5.90;99.90;;;;;;5097448;28;20181;-44
2024/03/24 03:30:35;;;;;;;1.93;0.90;;;5.90;99.90;;;;;;5097667;28;20203;-45
2024/03/24 03:33:01;;;;;;;2.10;0.73;;;5.80;99.90;;;;;;5097891;28;20208;-44
2024/03/24 03:35:26;;;;;;;1.50;0.73;;;5.80;99.90;;;;;;5098930;28;20192;-45
2024/03/24 03:37:52;;;;;;;1.23;0.73;;;5.80;99.90;;;;;;5099245;28;20422;-44
2024/03/24 03:40:17;;;;;;;1.40;0.70;;;5.80;99.90;;;;;;5098520;28;20558;-45
2024/03/24 03:43:27;;;;;;;1.10;0.80;;;5.90;99.90;;;;;;5098911;28;20169;-44
2024/03/24 03:45:53;;;;;;;1.43;0.87;;;5.90;99.90;;;;;;5099062;28;20424;-44
2024/03/24 03:48:19;;;;;;;4.63;1.43;;;5.90;99.90;;;;;;5098634;28;20461;-45
2024/03/24 03:50:46;;;;;;;1.77;1.27;;;5.90;99.90;;;;;;5098750;28;20430;-45
2024/03/24 03:53:17;;;;;;;1.10;0.77;;;5.90;99.90;;;;;;5098491;28;20212;-45
2024/03/24 03:55:47;;;;;;;1.63;0.67;;;5.90;99.90;;;;;;5101246;28;20470;-44
2024/03/24 03:58:13;;;;;;;1.43;0.70;;;5.90;99.90;;;;;;5102250;28;20430;-45
2024/03/24 04:00:39;;;;;;;1.00;0.60;;;5.90;99.90;;;;;;5102692;28;20422;-44
2024/03/24 04:03:04;;;;;;;2.07;0.97;;;5.90;99.90;;;;;;5101782;28;20430;-44
2024/03/24 04:05:30;;;;;;;1.10;0.80;;;5.90;99.90;;;;;;5102612;28;20177;-45
2024/03/24 04:07:56;;;;;;;1.40;1.00;;;5.90;99.90;;;;;;5101637;28;20175;-45
2024/03/24 04:10:22;;;;;;;1.57;0.80;;;5.90;99.90;;;;;;5101748;28;20462;-44
2024/03/24 04:12:47;;;;;;;2.60;1.23;;;5.90;99.90;;;;;;5101888;28;20319;-45
2024/03/24 04:15:13;;;;;;;1.10;0.90;;;5.90;97.00;;;;;;5102253;28;20263;-44
2024/03/24 04:17:38;;;;;;;0.90;0.70;;;5.90;84.30;;;;;;5101995;28;20192;-44
2024/03/24 04:20:07;;;;;;;1.03;0.70;;;5.90;14.10;;;;;;5083787;28;20275;-45
2024/03/24 04:22:33;;;;;;;1.03;0.73;;;5.90;1.00;;;;;;5102040;28;20442;-44
2024/03/24 04:24:59;;;;;;;1.10;0.80;;;5.90;1.00;;;;;;5101947;28;20850;-44
2024/03/24 04:27:24;;;;;;;1.00;0.60;;;5.90;1.00;;;;;;5101392;28;20450;-44
2024/03/24 04:29:50;;;;;;;1.33;0.70;;;5.90;1.00;;;;;;5102102;28;20442;-43
2024/03/24 04:32:16;;;;;;;1.23;0.83;;;5.90;1.00;;;;;;5101171;28;20204;-45
2024/03/24 04:34:42;;;;;;;1.57;1.10;;;5.90;1.00;;;;;;5101449;28;20471;-45
2024/03/24 04:37:08;;;;;;;0.90;0.70;;;5.90;1.00;;;;;;5102439;28;20472;-45
2024/03/24 04:39:34;;;;;;;1.20;0.70;;;5.90;1.00;;;;;;5101439;28;20577;-45
2024/03/24 04:42:00;;;;;;;1.30;0.93;;;6.00;1.00;;;;;;5101585;28;20430;-45
2024/03/24 04:44:25;;;;;;;0.87;0.60;;;6.00;1.00;;;;;;5101224;28;20183;-45
2024/03/24 04:46:52;;;;;;;1.10;0.70;;;5.90;1.00;;;;;;5101467;28;20177;-46
2024/03/24 04:49:17;;;;;;;1.60;1.00;;;5.90;1.00;;;;;;5101353;28;20173;-45
2024/03/24 04:51:43;;;;;;;1.40;0.80;;;5.90;1.00;;;;;;5101535;28;20937;-45
2024/03/24 04:54:09;;;;;;;1.13;0.70;;;5.90;1.00;;;;;;5100283;28;20434;-46
2024/03/24 04:56:34;;;;;;;2.10;0.80;;;5.90;1.00;;;;;;5100710;28;20180;-46
2024/03/24 04:59:01;;;;;;;0.90;0.50;;;5.90;1.00;;;;;;5101169;28;20200;-46
2024/03/24 05:01:27;;;;;;;0.90;0.70;;;5.90;1.00;;;;;;5100735;28;20229;-46
2024/03/24 05:03:53;;;;;;;1.00;0.80;;;5.90;1.00;;;;;;5101279;28;20434;-46
2024/03/24 05:06:19;;;;;;;1.97;1.07;;;5.90;1.00;;;;;;5099583;28;20574;-46
2024/03/24 05:08:45;;;;;;;1.37;0.70;;;5.90;1.00;;;;;;5100614;28;20426;-45
2024/03/24 05:11:11;;;;;;;1.00;0.60;;;5.90;1.00;;;;;;5099750;28;20473;-45
2024/03/24 05:13:38;;;;;;;1.00;0.70;;;5.80;1.00;;;;;;5101193;28;20470;-46
2024/03/24 05:16:07;;;;;;;0.80;0.50;;;5.80;1.00;;;;;;5100372;28;20215;-45
2024/03/24 05:18:34;;;;;;;1.30;0.90;;;5.80;1.00;;;;;;5100457;28;20422;-43
2024/03/24 05:21:00;;;;;;;1.53;0.80;;;5.80;1.00;;;;;;5101009;28;20924;-43
2024/03/24 05:23:25;;;;;;;1.23;0.90;;;5.80;1.00;;;;;;5100488;28;20519;-43
2024/03/24 05:25:54;;;;;;;1.10;0.70;;;5.80;1.00;;;;;;5100366;28;20180;-43
2024/03/24 05:28:21;;;;;;;1.13;0.80;;;5.80;1.00;;;;;;5099808;28;20179;-44
2024/03/24 05:30:47;;;;;;;1.77;0.77;;;5.80;1.00;;;;;;5100157;28;20422;-43
2024/03/24 05:33:13;;;;;;;1.30;0.80;;;5.80;1.00;;;;;;5100221;28;20470;-43
2024/03/24 05:35:39;;;;;;;1.13;0.70;;;5.70;1.00;;;;;;5100464;28;20422;-44
2024/03/24 05:38:05;;;;;;;1.47;0.80;;;5.70;1.00;;;;;;5099861;28;20491;-44
2024/03/24 05:40:30;;;;;;;1.10;0.60;;;5.70;1.00;;;;;;5099782;28;20192;-45
2024/03/24 05:42:56;;;;;;;1.47;0.70;;;5.70;1.00;;;;;;5100029;28;20298;-48
2024/03/24 05:45:22;;;;;;;1.20;0.67;;;5.70;1.00;;;;;;5099576;28;20173;-45
2024/03/24 05:47:49;;;;;;;1.93;0.70;;;5.70;1.00;;;;;;5099823;28;20244;-45
2024/03/24 05:50:15;;;;;;;1.40;0.90;;;5.70;1.00;;;;;;5100231;28;20177;-45
2024/03/24 05:52:42;;;;;;;1.50;1.00;;;5.70;20.30;;;;;;5081843;28;20740;-45
2024/03/24 05:55:09;;;;;;;1.00;0.77;;;5.70;29.00;;;;;;5081941;28;20458;-46
2024/03/24 05:57:35;;;;;;;1.30;0.70;;;5.80;42.20;;;;;;5099882;28;20437;-45
2024/03/24 06:00:01;;;;;;;1.13;0.60;;;5.80;80.20;;;;;;5098983;28;20491;-45
2024/03/24 06:02:27;;;;;;;1.47;0.90;;;5.80;74.40;;;;;;5099161;28;20458;-46
2024/03/24 06:04:55;;;;;;;1.60;0.60;;;5.90;80.40;;;;;;5100257;28;20429;-45
2024/03/24 06:07:24;;;;;;;1.20;0.80;;;5.90;73.70;;;;;;5099339;28;20199;-45
2024/03/24 06:09:50;;;;;;;1.30;1.13;;;6.10;67.50;;;;;;5099160;28;20485;-45
2024/03/24 06:12:15;;;;;;;1.10;0.80;;;6.20;25.20;;;;;;5099216;28;20944;-46
2024/03/24 06:14:41;;;;;;;1.53;0.60;;;6.50;24.90;;;;;;5099488;28;20181;-44
2024/03/24 06:17:07;;;;;;;1.33;0.70;;;7.00;1.00;;;;;;5098698;28;20249;-45
2024/03/24 06:19:33;;;;;;;1.87;1.07;;;7.50;79.80;;;;;;5099084;28;20735;-46
2024/03/24 06:21:59;;;;;;;1.73;1.40;;;7.80;1.00;;;;;;5098879;28;20267;-46
2024/03/24 06:24:24;;;;;;;1.63;0.90;;;7.90;1.00;;;;;;5099041;28;20454;-46
2024/03/24 06:26:50;;;;;;;1.20;0.73;;;7.90;1.00;;;;;;5081417;28;20180;-45
2024/03/24 06:29:16;;;;;;;1.00;0.77;;;7.90;99.90;;;;;;5098884;28;20258;-45
2024/03/24 06:31:42;;;;;;;2.80;0.97;;;7.70;99.90;;;;;;5099820;28;20428;-45
2024/03/24 06:34:07;;;;;;;1.20;0.80;;;7.70;99.90;;;;;;5099243;28;20211;-46
2024/03/24 06:36:41;;;;;;;1.63;0.97;;;7.60;99.90;;;;;;5099102;28;20183;-45
2024/03/24 06:39:08;;;;;;;1.60;1.00;;;7.50;99.90;;;;;;5098735;28;20426;-46
2024/03/24 06:41:41;;;;;;;1.33;0.93;;;7.50;1.00;;;;;;5098887;28;20846;-46
2024/03/24 06:44:16;;;;;;;2.50;1.07;;;7.50;1.00;;;;;;5098430;28;20832;-45
2024/03/24 06:46:42;;;;;;;1.20;0.80;;;7.50;1.00;;;;;;5098798;28;20401;-45
2024/03/24 06:49:08;;;;;;;1.30;1.10;;;7.50;1.00;;;;;;5080155;28;20457;-46
2024/03/24 06:51:34;;;;;;;1.60;1.03;;;7.50;1.00;;;;;;5097819;28;20419;-46
2024/03/24 06:54:00;;;;;;;1.83;0.83;;;7.50;99.90;;;;;;5097048;28;20394;-49
2024/03/24 06:56:26;;;;;;;3.33;1.20;;;7.40;99.90;;;;;;5098034;28;20418;-45
2024/03/24 06:58:52;;;;;;;1.17;0.73;;;7.40;99.90;;;;;;5097016;28;20574;-46
2024/03/24 07:01:21;;;;;;;1.23;0.50;;;7.40;99.90;;;;;;5097809;28;20742;-46
2024/03/24 07:03:46;;;;;;;1.20;0.70;;;7.40;59.60;;;;;;5080253;28;20496;-46
2024/03/24 07:06:13;;;;;;;1.00;0.77;;;7.50;54.80;;;;;;5098422;28;20438;-46
2024/03/24 07:08:39;;;;;;;4.17;1.13;;;7.50;1.00;;;;;;5098375;28;20176;-45
2024/03/24 07:11:05;;;;;;;1.60;0.97;;;7.50;1.00;;;;;;5080590;28;20901;-45
2024/03/24 07:13:31;;;;;;;1.70;1.00;;;7.50;88.10;;;;;;5098087;28;20545;-46
2024/03/24 07:15:56;;;;;;;1.10;0.73;;;7.50;1.00;;;;;;5098438;28;20279;-45
2024/03/24 07:18:22;;;;;;;2.60;1.30;;;7.60;1.00;;;;;;5098294;28;20180;-45
2024/03/24 07:20:47;;;;;;;2.47;1.00;;;7.60;99.90;;;;;;5097118;28;20180;-45
2024/03/24 07:23:14;;;;;;;2.93;1.40;;;7.80;99.90;;;;;;5098191;28;20188;-45
2024/03/24 07:25:40;;;;;;;2.90;1.20;;;7.90;99.90;;;;;;5098294;28;20200;-46
2024/03/24 07:28:05;;;;;;;1.73;1.10;;;8.10;99.90;;;;;;5098775;28;20671;-46
2024/03/24 07:30:31;;;;;;;1.80;1.20;;;8.30;99.90;;;;;;5102063;28;20584;-45
2024/03/24 07:32:57;;;;;;;1.50;1.00;;;8.70;1.00;;;;;;5102035;28;20223;-45
2024/03/24 07:35:23;;;;;;;2.80;1.20;;;9.00;1.00;;;;;;5101972;28;20418;-46
2024/03/24 07:37:48;;;;;;;1.43;0.93;;;9.20;1.00;;;;;;5100956;28;20165;-46
2024/03/24 07:40:14;;;;;;;1.70;1.33;;;9.30;99.90;;;;;;5101298;28;20168;-45
2024/03/24 07:42:42;;;;;;;3.13;1.50;;;9.20;99.90;;;;;;5101733;28;20248;-46
2024/03/24 07:45:08;;;;;;;1.90;1.43;;;9.10;99.90;;;;;;5101639;28;20214;-46
2024/03/24 07:47:34;;;;;;;4.47;1.40;;;9.00;99.90;;;;;;5101352;28;20430;-45
2024/03/24 07:50:00;;;;;;;1.93;1.30;;;8.80;99.90;;;;;;5101999;28;20894;-45
2024/03/24 07:52:26;;;;;;;1.57;1.10;;;8.80;99.90;;;;;;5103026;28;20455;-46
2024/03/24 07:54:52;;;;;;;3.10;1.30;;;8.70;1.00;;;;;;5103099;28;20422;-45
2024/03/24 07:57:17;;;;;;;1.90;1.20;;;8.70;1.00;;;;;;5101704;28;20391;-46
2024/03/24 07:59:43;;;;;;;2.40;1.57;;;8.90;1.00;;;;;;5101379;28;20176;-46
2024/03/24 08:02:09;;;;;;;1.50;1.10;;;9.30;1.00;;;;;;5102830;28;20196;-46
2024/03/24 08:04:35;;;;;;;1.60;1.27;;;9.70;1.00;;;;;;5100548;28;20570;-45
2024/03/24 08:07:01;;;;;;;3.30;1.50;;;10.20;1.00;;;;;;5100800;28;20820;-45
2024/03/24 08:09:27;;;;;;;2.63;1.53;;;10.60;99.90;;;;;;5101370;28;20497;-45
2024/03/24 08:11:52;;;;;;;2.70;1.10;;;10.80;99.90;;;;;;5100133;28;20212;-45
2024/03/24 08:14:18;;;;;;;2.73;1.50;;;11.10;99.90;;;;;;5100298;28;20252;-45
2024/03/24 08:16:44;;;;;;;1.77;1.10;;;11.30;57.70;;;;;;5083010;28;20227;-46
2024/03/24 08:19:10;;;;;;;1.93;1.07;;;11.60;40.20;;;;;;5101503;28;20165;-45
2024/03/24 08:21:36;;;;;;;2.50;1.60;;;11.80;5.50;;;;;;5101674;28;20471;-47
2024/03/24 08:24:02;;;;;;;2.10;1.50;;;11.90;1.00;;;;;;5101508;28;20188;-46
2024/03/24 08:26:28;;;;;;;2.53;1.50;;;11.90;1.00;;;;;;5101303;28;20426;-46
2024/03/24 08:28:54;;;;;;;3.07;1.10;;;12.00;1.00;;;;;;5102474;28;20410;-46
2024/03/24 08:31:19;;;;;;;1.50;1.00;;;12.20;1.00;;;;;;5101792;28;20179;-45
2024/03/24 08:33:45;;;;;;;2.60;1.80;;;12.50;1.00;;;;;;5101007;28;20208;-46
2024/03/24 08:36:11;;;;;;;1.83;1.20;;;12.70;1.00;;;;;;5082292;28;20177;-45
2024/03/24 08:38:37;;;;;;;3.20;1.37;;;12.90;1.00;;;;;;5100615;28;20188;-46
2024/03/24 08:41:02;;;;;;;2.17;1.10;;;12.80;1.00;;;;;;5100359;28;20168;-46
2024/03/24 08:43:28;;;;;;;2.33;1.00;;;12.80;1.00;;;;;;5100468;28;20528;-46
2024/03/24 08:45:53;;;;;;;2.33;1.20;;;12.90;1.00;;;;;;5100865;28;20188;-46
2024/03/24 08:48:19;;;;;;;2.73;1.60;;;13.00;1.00;;;;;;5099819;28;20176;-46
2024/03/24 08:50:45;;;;;;;3.80;1.53;;;13.00;1.00;;;;;;5101720;28;20188;-46
2024/03/24 08:53:11;;;;;;;1.83;1.23;;;12.80;1.00;;;;;;5083704;28;20216;-46
2024/03/24 08:55:36;;;;;;;3.60;1.50;;;12.60;1.00;;;;;;5101302;28;20421;-45
2024/03/24 08:58:02;;;;;;;2.70;1.70;;;12.50;1.00;;;;;;5099722;28;20184;-45
2024/03/24 09:00:28;;;;;;;2.40;1.30;;;12.50;1.00;;;;;;5101230;28;20210;-45
2024/03/24 09:02:53;;;;;;;1.87;1.17;;;12.80;1.00;;;;;;5100308;28;20508;-45
2024/03/24 09:05:19;;;;;;;2.40;1.57;;;13.10;1.00;;;;;;5101067;28;20212;-45
2024/03/24 09:07:45;;;;;;;2.57;1.37;;;13.20;1.00;;;;;;5100846;28;20206;-45
2024/03/24 09:10:10;;;;;;;3.83;0.70;;;13.20;1.00;;;;;;5099615;28;20285;-47
2024/03/24 09:12:36;;;;;;;1.00;0.50;;;13.70;99.90;;;;;;5088724;28;20236;-43
2024/03/24 09:15:02;;;;;;;2.47;1.37;;;15.10;99.90;;;;;;5098955;28;20221;-42
2024/03/24 09:17:28;;;;;;;2.40;0.80;;;16.10;1.00;;;;;;5097312;28;20553;-42
2024/03/24 09:19:53;;;;;;;8.90;1.67;;;16.70;1.00;;;;;;5096856;28;20172;-40
2024/03/24 09:22:21;;;;;;;4.73;1.00;;;17.40;99.90;;;;;;5078831;28;20340;-39
2024/03/24 09:24:46;;;;;;;1.73;1.33;;;18.10;34.70;;;;;;5095379;28;20275;-40
2024/03/24 09:27:12;;;;;;;2.43;1.27;;;18.10;1.00;;;;;;5097008;28;20745;-40
2024/03/24 09:29:38;;;;;;;2.03;1.37;;;17.40;1.00;;;;;;5078416;28;20176;-42
2024/03/24 09:32:05;;;;;;;2.13;1.43;;;16.60;1.00;;;;;;5079536;28;20962;-41
2024/03/24 09:34:31;;;;;;;2.40;1.50;;;15.70;1.00;;;;;;5097077;28;20186;-42
2024/03/24 09:36:56;;;;;;;3.37;1.80;;;15.00;1.00;;;;;;5079609;28;20521;-40
2024/03/24 09:39:24;;;;;;;3.00;1.70;;;14.50;1.00;;;;;;5099038;28;20173;-41
2024/03/24 09:41:50;;;;;;;2.27;1.80;;;14.10;1.00;;;;;;5098766;28;20180;-40
2024/03/24 09:44:16;;;;;;;3.20;1.70;;;13.60;1.00;;;;;;5098461;28;20426;-42
2024/03/24 09:46:43;;;;;;;2.83;1.40;;;13.00;1.00;;;;;;5098023;28;20552;-39
2024/03/24 09:49:12;;;;;;;3.30;1.60;;;12.60;1.00;;;;;;5080337;28;20666;-39
2024/03/24 09:51:39;;;;;;;2.07;1.40;;;12.40;1.00;;;;;;5096292;28;20418;-40
2024/03/24 09:54:07;;;;;;;1.60;1.30;;;12.10;1.00;;;;;;5096258;28;20426;-40
2024/03/24 09:56:33;;;;;;;4.07;1.40;;;12.20;1.00;;;;;;5079695;28;20549;-40
2024/03/24 09:59:02;;;;;;;2.70;1.50;;;12.50;1.00;;;;;;5097418;28;20414;-40
2024/03/24 10:01:29;;;;;;;2.13;1.40;;;12.70;1.00;;;;;;5079185;28;20410;-40
2024/03/24 10:03:54;;;;;;;3.30;1.77;;;12.80;1.00;;;;;;5094949;28;20484;-40
2024/03/24 10:06:22;;;;;;;2.67;1.60;;;12.80;1.00;;;;;;5077573;28;20454;-40
2024/03/24 10:08:48;;;;;;;2.47;1.60;;;12.70;1.00;;;;;;5094286;28;20188;-40
2024/03/24 10:11:24;;;;;;;2.10;1.30;;;12.50;1.00;;;;;;5077238;28;20757;-41
2024/03/24 10:13:50;;;;;;;2.80;2.03;;;12.20;1.00;;;;;;5096314;28;20200;-40
2024/03/24 10:16:15;;;;;;;5.40;1.50;;;11.90;1.00;;;;;;5079207;28;20407;-40
2024/03/24 10:18:41;;;;;;;2.70;1.30;;;11.70;1.00;;;;;;5097198;28;20176;-39
2024/03/24 10:21:11;;;;;;;4.60;1.73;;;11.40;1.00;;;;;;5080183;28;20585;-38
2024/03/24 10:23:38;;;;;;;1.40;0.90;;;11.80;1.00;;;;;;5098110;28;20195;-39
2024/03/24 10:26:03;;;;;;;2.57;1.23;;;12.50;99.90;;;;;;5100289;28;20438;-40
2024/03/24 10:28:29;;;;;;;5.90;1.40;;;13.30;1.00;;;;;;5102192;28;20420;-41
2024/03/24 10:31:07;;;;;;;4.37;2.27;;;14.00;91.10;;;;;;5082429;28;20184;-41
2024/03/24 10:33:34;;;;;;;3.10;1.50;;;14.10;1.00;;;;;;5100122;28;20431;-41
2024/03/24 10:36:00;;;;;;;3.50;1.57;;;13.90;1.00;;;;;;5081386;28;20422;-40
2024/03/24 10:38:27;;;;;;;2.50;1.40;;;14.00;1.00;;;;;;5098069;28;20513;-41
2024/03/24 10:40:56;;;;;;;2.60;1.40;;;14.10;1.00;;;;;;5096953;28;20505;-41
2024/03/24 10:43:25;;;;;;;3.30;1.50;;;14.40;1.00;;;;;;5097396;28;20480;-40
2024/03/24 10:45:55;;;;;;;3.23;1.60;;;14.80;1.00;;;;;;5097048;28;20430;-41
2024/03/24 10:48:31;;;;;;;3.27;1.90;;;14.90;1.00;;;;;;5098215;28;20445;-42
2024/03/24 10:51:00;;;;;;;4.13;1.80;;;14.70;1.00;;;;;;5098137;28;20437;-42
2024/03/24 10:53:33;;;;;;;2.90;1.87;;;14.40;1.00;;;;;;5096783;28;20892;-40
2024/03/24 10:56:00;;;;;;;1.97;1.60;;;14.20;1.00;;;;;;5097045;28;20417;-40
2024/03/24 10:58:26;;;;;;;2.70;1.87;;;14.00;1.00;;;;;;5097138;28;20751;-40
2024/03/24 11:00:53;;;;;;;2.97;2.13;;;13.70;1.00;;;;;;5095273;28;20426;-40
2024/03/24 11:03:20;;;;;;;3.37;1.77;;;13.50;1.00;;;;;;5097673;28;20454;-40
2024/03/24 11:05:50;;;;;;;2.33;1.57;;;13.50;1.00;;;;;;5100270;28;20426;-41
2024/03/24 11:08:19;;;;;;;3.23;1.57;;;13.60;1.00;;;;;;5100779;28;20434;-42
2024/03/24 11:10:46;;;;;;;2.93;1.93;;;13.80;1.00;;;;;;5099402;28;20485;-41
2024/03/24 11:13:15;;;;;;;3.43;1.87;;;13.80;1.00;;;;;;5100545;28;20830;-40
2024/03/24 11:15:44;;;;;;;3.00;1.40;;;13.60;1.00;;;;;;5067047;28;20807;-40
2024/03/24 11:18:27;;;;;;;3.77;1.80;;;13.40;1.00;;;;;;5101563;28;20487;-49
2024/03/24 11:20:54;;;;;;;4.03;1.90;;;13.20;1.00;;;;;;5100562;28;20429;-39
2024/03/24 11:23:21;;;;;;;4.03;2.10;;;13.00;1.00;;;;;;5066194;28;20521;-40
2024/03/24 11:25:50;;;;;;;2.70;1.60;;;12.60;1.00;;;;;;5100632;28;20509;-40
2024/03/24 11:28:48;;;;;;;3.93;1.83;;;12.20;1.00;;;;;;5101518;28;20415;-44
2024/03/24 11:31:20;;;;;;;4.53;2.47;;;11.80;1.00;;;;;;5084664;28;20438;-39
2024/03/24 11:34:11;;;;;;;2.57;1.93;;;11.60;1.00;;;;;;5102546;28;20457;-40
2024/03/24 11:36:41;;;;;;;3.70;2.20;;;11.50;1.00;;;;;;5101490;28;20414;-40
2024/03/24 11:39:09;;;;;;;4.07;2.27;;;11.50;1.00;;;;;;5101187;28;20406;-40
2024/03/24 11:41:35;;;;;;;2.93;1.60;;;11.50;1.00;;;;;;5100368;28;20480;-40
2024/03/24 11:44:06;;;;;;;3.97;1.87;;;11.60;1.00;;;;;;5082717;28;20410;-40
2024/03/24 11:46:35;;;;;;;2.93;1.90;;;11.80;1.00;;;;;;5100653;28;20501;-40
2024/03/24 11:49:02;;;;;;;3.03;1.87;;;11.70;1.00;;;;;;5101636;28;20422;-40
2024/03/24 11:51:30;;;;;;;2.47;1.80;;;11.70;1.00;;;;;;5100955;28;20434;-41
2024/03/24 11:53:57;;;;;;;3.80;2.07;;;11.60;1.00;;;;;;5100971;28;20461;-42
2024/03/24 11:56:24;;;;;;;2.93;1.60;;;11.50;1.00;;;;;;5083557;28;20448;-40
2024/03/24 11:58:51;;;;;;;7.27;2.20;;;11.40;1.00;;;;;;5082139;28;20417;-42
2024/03/24 12:01:18;;;;;;;5.07;2.33;;;11.10;1.00;;;;;;5100580;28;20437;-40
2024/03/24 12:03:44;;;;;;;2.63;1.63;;;10.90;1.00;;;;;;5099733;28;20433;-41
2024/03/24 12:06:13;;;;;;;2.67;1.40;;;10.80;1.00;;;;;;5100080;28;20750;-42
2024/03/24 12:08:40;;;;;;;3.90;1.40;;;10.80;1.00;;;;;;5083072;28;20438;-41
2024/03/24 12:11:06;;;;;;;2.37;1.57;;;10.60;1.00;;;;;;5100327;28;20474;-41
2024/03/24 12:13:32;;;;;;;2.70;1.80;;;10.70;1.00;;;;;;5100465;28;20744;-41
2024/03/24 12:15:57;;;;;;;1.97;1.77;;;10.60;1.00;;;;;;5099449;28;20418;-41
2024/03/24 12:18:23;;;;;;;3.67;3.33;;;10.50;1.00;;;;;;5081398;28;20177;-40
2024/03/24 12:20:49;;;;;;;6.20;5.70;;;10.50;1.00;;;;;;5098374;28;20191;-41
2024/03/24 12:23:15;;;;;;;3.03;2.80;;;10.50;1.00;;;;;;5098923;28;20181;-42
2024/03/24 12:25:45;;;;;;;4.70;4.30;;;10.50;1.00;;;;;;5100348;28;20554;-40
2024/03/24 12:28:16;;;;;;;3.47;2.73;;;10.60;1.00;;;;;;5082271;28;20433;-40
2024/03/24 12:30:51;;;;;;;2.80;2.37;;;10.70;1.00;;;;;;5082067;28;20536;-41
2024/03/24 12:33:24;;;;;;;2.77;1.97;;;10.90;1.00;;;;;;5100521;28;20480;-40
2024/03/24 12:35:51;;;;;;;2.97;1.93;;;11.10;1.00;;;;;;5099849;28;20425;-42
2024/03/24 12:38:17;;;;;;;3.63;1.80;;;11.30;1.00;;;;;;5081656;28;20438;-50
2024/03/24 12:40:53;;;;;;;5.70;2.30;;;11.30;1.00;;;;;;5082038;28;20945;-40
2024/03/24 12:43:27;;;;;;;3.93;2.03;;;11.50;1.00;;;;;;5063514;28;20469;-41
2024/03/24 12:45:55;;;;;;;3.80;2.27;;;12.20;1.00;;;;;;5096705;28;20458;-41
2024/03/24 12:48:23;;;;;;;4.00;2.00;;;12.40;1.00;;;;;;5095585;28;20513;-40
2024/03/24 12:50:49;;;;;;;4.70;1.80;;;12.40;1.00;;;;;;5078131;28;20598;-41
2024/03/24 12:53:48;;;;;;;4.00;1.90;;;12.30;1.00;;;;;;5095604;28;20763;-41
2024/03/24 12:56:16;;;;;;;3.57;2.00;;;12.00;1.00;;;;;;5096948;28;20185;-41
2024/03/24 12:58:44;;;;;;;2.97;1.80;;;11.60;1.00;;;;;;5097249;28;20430;-40